Time;durP1;ratioP1;P1;durP2;ratioP2;P2;SDS_P1;SDS_P2;PMS_P1;PMS_P2;Temp;Humidity;BMP_temperature;BMP_pressure;BME280_temperature;BME280_humidity;BME280_pressure;Samples;Min_cycle;Max_cycle;Signal;HPM_P1;HPM_P2
2022/03/02 00:01:52;;;;;;;33.90;14.60;;;;;;;2.90;73.07;99822.39;25038;1316;3027308;-59
2022/03/02 00:04:18;;;;;;;32.10;15.00;;;;;;;2.82;73.35;99814.95;23612;1316;8693479;-60
2022/03/02 00:06:48;;;;;;;32.90;15.30;;;;;;;2.78;73.31;99815.23;25096;1315;3070367;-58
2022/03/02 00:09:17;;;;;;;35.60;14.90;;;;;;;2.67;73.82;99814.96;25054;1315;3027231;-58
2022/03/02 00:11:47;;;;;;;27.60;12.00;;;;;;;2.56;74.56;99812.61;25082;1315;3052207;-60
2022/03/02 00:14:17;;;;;;;29.20;12.30;;;;;;;3.00;73.76;99805.70;25026;1315;3026455;-58
2022/03/02 00:16:46;;;;;;;25.20;12.70;;;;;;;3.64;71.85;99798.05;25081;1315;3028691;-60
2022/03/02 00:19:15;;;;;;;31.80;14.60;;;;;;;3.84;70.98;99797.14;25067;1315;3027418;-60
2022/03/02 00:21:44;;;;;;;30.90;14.10;;;;;;;3.82;70.86;99796.85;25015;1319;3070618;-56
2022/03/02 00:24:13;;;;;;;31.30;15.10;;;;;;;3.63;70.68;99793.03;25079;1315;3029284;-60
2022/03/02 00:26:42;;;;;;;31.50;14.20;;;;;;;3.42;71.25;99793.40;25087;1315;3053658;-60
2022/03/02 00:29:11;;;;;;;29.70;13.70;;;;;;;3.09;72.18;99798.58;25040;1315;3026597;-60
2022/03/02 00:31:40;;;;;;;39.50;17.00;;;;;;;2.95;72.65;99803.06;25056;1319;3055977;-61
2022/03/02 00:34:09;;;;;;;34.60;15.70;;;;;;;2.83;73.42;99803.34;25029;1315;3026462;-60
2022/03/02 00:36:38;;;;;;;34.40;16.50;;;;;;;2.79;73.83;99801.88;25025;1315;3049614;-62
2022/03/02 00:39:07;;;;;;;32.00;15.20;;;;;;;2.74;73.77;99803.23;25067;1315;3026679;-62
2022/03/02 00:41:36;;;;;;;29.20;13.50;;;;;;;2.66;73.95;99796.82;25100;1315;3055599;-61
2022/03/02 00:44:06;;;;;;;25.10;11.40;;;;;;;3.06;73.19;99790.52;25050;1318;3026838;-60
2022/03/02 00:46:35;;;;;;;26.70;12.60;;;;;;;3.70;71.53;99781.41;25044;1316;3027395;-61
2022/03/02 00:52:28;;;;;;;30.90;15.90;;;;;;;3.89;70.68;99781.77;31538;1308;3026517;-63
2022/03/02 00:54:57;;;;;;;35.20;19.60;;;;;;;4.02;70.13;99786.95;25109;1310;3026840;-64
2022/03/02 00:57:26;;;;;;;35.20;15.90;;;;;;;3.99;68.93;99782.01;25107;1310;3026388;-64
2022/03/02 01:00:00;;;;;;;34.00;15.60;;;;;;;3.54;70.41;99783.77;25150;1310;3051787;-64
2022/03/02 01:02:30;;;;;;;33.70;15.10;;;;;;;3.31;71.13;99784.00;25191;1310;3026770;-65
2022/03/02 01:04:56;;;;;;;33.60;14.50;;;;;;;3.14;72.10;99780.11;23721;1309;8652970;-63
2022/03/02 01:07:25;;;;;;;29.60;14.70;;;;;;;3.07;72.07;99785.98;25154;1308;3055866;-64
2022/03/02 01:09:54;;;;;;;34.80;15.40;;;;;;;2.97;72.25;99782.95;25174;1307;3026824;-63
2022/03/02 01:12:24;;;;;;;30.30;14.30;;;;;;;2.68;73.70;99787.25;25169;1309;3051964;-63
2022/03/02 01:14:54;;;;;;;27.10;11.70;;;;;;;2.74;73.72;99782.98;25205;1308;3027351;-63
2022/03/02 01:17:23;;;;;;;28.50;11.40;;;;;;;3.16;72.58;99781.25;25162;1308;3026419;-63
2022/03/02 01:19:52;;;;;;;26.40;11.20;;;;;;;3.81;71.00;99776.78;25153;1309;3052086;-63
2022/03/02 01:22:21;;;;;;;26.40;13.40;;;;;;;3.81;70.09;99776.79;25133;1308;3026424;-64
2022/03/02 01:24:49;;;;;;;25.70;13.10;;;;;;;3.56;70.62;99769.49;25194;1308;3055212;-64
2022/03/02 01:27:18;;;;;;;26.00;13.00;;;;;;;3.44;71.20;99773.60;25126;1309;3026717;-66
2022/03/02 01:29:47;;;;;;;31.20;14.30;;;;;;;3.17;71.82;99771.03;25138;1309;3053341;-63
2022/03/02 01:32:17;;;;;;;28.40;13.50;;;;;;;2.97;72.70;99768.23;25238;1308;3026410;-63
2022/03/02 01:34:46;;;;;;;30.50;13.90;;;;;;;2.85;73.03;99769.55;25181;1309;3050414;-63
2022/03/02 01:37:16;;;;;;;27.50;13.30;;;;;;;2.74;73.51;99766.53;25119;1308;3026685;-63
2022/03/02 01:39:45;;;;;;;27.20;13.80;;;;;;;2.61;74.03;99769.59;25152;1309;3026718;-63
2022/03/02 01:42:14;;;;;;;26.80;13.10;;;;;;;2.56;74.14;99770.58;25191;1308;3026164;-65
2022/03/02 01:44:43;;;;;;;21.40;9.60;;;;;;;2.56;74.17;99767.80;25164;1309;3053666;-64
2022/03/02 01:47:13;;;;;;;22.50;10.20;;;;;;;3.02;72.87;99763.61;25135;1308;3027209;-64
2022/03/02 01:49:42;;;;;;;20.90;10.10;;;;;;;3.24;72.10;99762.19;25177;1309;3026649;-65
2022/03/02 01:52:11;;;;;;;20.90;11.60;;;;;;;3.29;72.05;99760.84;25131;1309;3052141;-64
2022/03/02 01:54:40;;;;;;;21.10;10.30;;;;;;;3.33;71.93;99760.05;25133;1309;3026104;-64
2022/03/02 01:57:09;;;;;;;24.00;11.50;;;;;;;3.14;72.41;99761.25;25139;1308;3027250;-64
2022/03/02 01:59:38;;;;;;;23.20;12.40;;;;;;;2.87;73.28;99760.16;25196;1309;3051541;-64
2022/03/02 02:02:07;;;;;;;23.70;11.50;;;;;;;2.85;73.48;99756.92;25158;1308;3026582;-64
2022/03/02 02:04:36;;;;;;;25.40;12.30;;;;;;;2.81;73.36;99757.02;25200;1309;3055970;-64
2022/03/02 02:07:06;;;;;;;25.00;11.80;;;;;;;2.69;73.50;99754.71;25207;1308;3026576;-64
2022/03/02 02:09:35;;;;;;;26.40;13.20;;;;;;;2.44;74.72;99756.14;25125;1309;3027537;-64
2022/03/02 02:12:04;;;;;;;22.40;10.30;;;;;;;2.33;75.26;99755.88;25166;1309;3026775;-64
2022/03/02 02:14:33;;;;;;;17.80;9.90;;;;;;;2.74;74.67;99752.36;25148;1308;3051466;-64
2022/03/02 02:17:02;;;;;;;22.40;10.20;;;;;;;3.26;72.78;99746.05;25236;1308;3029338;-64
2022/03/02 02:19:31;;;;;;;23.70;11.40;;;;;;;3.41;72.20;99749.45;25165;1308;3054784;-64
2022/03/02 02:22:00;;;;;;;24.40;10.70;;;;;;;3.33;72.10;99742.23;25211;1309;3026214;-64
2022/03/02 02:24:29;;;;;;;23.40;12.30;;;;;;;3.21;72.31;99743.22;25142;1308;3048137;-64
2022/03/02 02:26:59;;;;;;;23.20;11.00;;;;;;;2.95;72.97;99740.77;25171;1309;3026445;-64
2022/03/02 02:29:29;;;;;;;22.60;11.40;;;;;;;2.77;73.66;99743.11;25210;1308;3068806;-64
2022/03/02 02:31:58;;;;;;;23.50;11.70;;;;;;;2.72;73.94;99739.41;25192;1309;3027192;-64
2022/03/02 02:34:27;;;;;;;24.30;12.90;;;;;;;2.69;74.05;99738.12;25162;1309;3029068;-63
2022/03/02 02:37:09;;;;;;;25.60;11.90;;;;;;;2.49;74.47;99734.60;25166;1309;3071814;-63
2022/03/02 02:39:38;;;;;;;25.20;11.40;;;;;;;2.41;75.04;99733.40;25179;1309;3026336;-63
2022/03/02 02:42:08;;;;;;;23.40;10.90;;;;;;;2.72;74.58;99730.94;25169;1309;3028562;-64
2022/03/02 02:44:37;;;;;;;17.30;9.30;;;;;;;3.36;72.82;99730.36;25173;1307;3070817;-64
2022/03/02 02:47:07;;;;;;;17.00;10.10;;;;;;;3.67;71.85;99726.22;25149;1308;3026779;-64
2022/03/02 02:49:36;;;;;;;18.50;9.50;;;;;;;3.31;71.77;99727.88;25182;1309;3026600;-64
2022/03/02 02:52:06;;;;;;;22.10;11.20;;;;;;;3.22;72.49;99727.10;25204;1309;3026828;-64
2022/03/02 02:54:37;;;;;;;22.90;12.60;;;;;;;2.90;73.11;99724.08;25133;1308;3049677;-63
2022/03/02 02:57:06;;;;;;;23.40;11.20;;;;;;;2.75;74.13;99724.82;25190;1309;3026381;-64
2022/03/02 02:59:35;;;;;;;23.30;11.40;;;;;;;2.72;73.96;99725.77;25127;1309;3069181;-64
2022/03/02 03:02:04;;;;;;;22.00;11.90;;;;;;;2.63;74.22;99723.02;25177;1308;3026779;-63
2022/03/02 03:04:33;;;;;;;27.10;13.30;;;;;;;2.53;74.24;99722.22;25121;1309;3052899;-64
2022/03/02 03:07:02;;;;;;;21.10;10.70;;;;;;;2.40;75.28;99721.32;25189;1308;3028633;-64
2022/03/02 03:09:33;;;;;;;20.70;9.70;;;;;;;2.81;74.42;99714.97;25137;1309;3055626;-63
2022/03/02 03:12:02;;;;;;;21.30;10.80;;;;;;;3.35;72.84;99708.23;25228;1309;3028514;-64
2022/03/02 03:14:31;;;;;;;24.00;11.20;;;;;;;3.64;71.90;99709.17;25180;1308;3027558;-64
2022/03/02 03:17:01;;;;;;;21.10;11.10;;;;;;;3.63;71.39;99702.60;25153;1308;3029819;-64
2022/03/02 03:19:30;;;;;;;20.90;10.10;;;;;;;3.34;71.56;99706.16;25217;1308;3050690;-64
2022/03/02 03:22:06;;;;;;;21.60;11.10;;;;;;;3.01;72.36;99702.71;25125;1311;3026590;-64
2022/03/02 03:24:35;;;;;;;22.10;11.70;;;;;;;2.84;73.17;99708.84;25153;1308;3055284;-64
2022/03/02 03:27:07;;;;;;;22.40;11.60;;;;;;;2.62;74.19;99706.63;25163;1308;3026760;-64
2022/03/02 03:29:37;;;;;;;25.40;12.10;;;;;;;2.52;74.95;99703.94;25236;1309;3026836;-64
2022/03/02 03:32:07;;;;;;;22.70;11.30;;;;;;;2.39;75.38;99704.05;25167;1309;3027567;-64
2022/03/02 03:34:36;;;;;;;20.20;11.00;;;;;;;2.32;75.87;99699.20;25225;1308;3026585;-63
2022/03/02 03:37:05;;;;;;;18.80;8.90;;;;;;;2.97;74.50;99692.23;25136;1309;3027064;-64
2022/03/02 03:39:34;;;;;;;19.40;9.60;;;;;;;3.55;72.15;99687.08;25202;1308;3048647;-64
2022/03/02 03:42:03;;;;;;;17.70;9.60;;;;;;;3.56;71.58;99687.73;25132;1308;3026115;-64
2022/03/02 03:44:33;;;;;;;17.90;9.50;;;;;;;3.28;71.80;99687.64;25102;1309;3070611;-64
2022/03/02 03:47:04;;;;;;;17.90;10.00;;;;;;;3.01;72.90;99690.08;25113;1308;3026594;-64
2022/03/02 03:49:34;;;;;;;20.30;9.50;;;;;;;2.96;73.14;99689.52;25138;1308;3026103;-64
2022/03/02 03:52:04;;;;;;;21.00;11.10;;;;;;;2.80;73.68;99689.41;25206;1308;3026502;-64
2022/03/02 03:54:34;;;;;;;22.00;10.60;;;;;;;2.79;73.87;99689.27;25250;1308;3027390;-64
2022/03/02 03:57:04;;;;;;;23.50;11.20;;;;;;;2.58;74.33;99686.83;25142;1309;3026670;-64
2022/03/02 03:59:34;;;;;;;19.10;9.80;;;;;;;2.48;74.77;99688.10;25180;1309;3027440;-64
2022/03/02 04:02:03;;;;;;;20.20;10.00;;;;;;;2.42;74.70;99685.50;25113;1309;3029870;-63
2022/03/02 04:04:32;;;;;;;18.00;8.40;;;;;;;2.77;74.63;99684.64;25135;1311;3052094;-64
2022/03/02 04:07:02;;;;;;;16.90;8.30;;;;;;;3.28;72.98;99676.89;25159;1308;3026790;-64
2022/03/02 04:09:31;;;;;;;19.10;9.50;;;;;;;3.44;72.00;99673.00;25148;1309;3026974;-64
2022/03/02 04:12:20;;;;;;;18.70;9.90;;;;;;;3.37;71.81;99668.70;25130;1311;3071171;-64
2022/03/02 04:14:49;;;;;;;17.80;9.50;;;;;;;3.20;72.37;99668.63;25160;1309;3026365;-64
2022/03/02 04:17:18;;;;;;;17.90;9.20;;;;;;;2.96;72.97;99668.56;25166;1309;3027070;-64
2022/03/02 04:19:47;;;;;;;18.10;10.30;;;;;;;2.79;73.72;99667.80;25155;1309;3068231;-64
2022/03/02 04:22:16;;;;;;;19.30;9.70;;;;;;;2.77;73.86;99671.48;25180;1309;3026440;-64
2022/03/02 04:24:46;;;;;;;20.50;10.90;;;;;;;2.63;74.29;99673.92;25115;1309;3050930;-63
2022/03/02 04:27:15;;;;;;;19.20;9.90;;;;;;;2.50;74.82;99676.14;25158;1307;3026844;-64
2022/03/02 04:29:45;;;;;;;16.50;9.10;;;;;;;2.40;75.60;99677.06;25155;1308;3026274;-63
2022/03/02 04:32:14;;;;;;;18.60;8.60;;;;;;;2.86;74.38;99675.92;25232;1308;3048746;-64
2022/03/02 04:34:43;;;;;;;15.60;8.40;;;;;;;3.57;72.82;99674.19;25100;1310;3027278;-63
2022/03/02 04:37:12;;;;;;;15.50;8.80;;;;;;;3.48;71.39;99679.64;25201;1310;3026506;-64
2022/03/02 04:39:42;;;;;;;18.60;9.50;;;;;;;3.34;72.12;99679.35;25171;1308;3054550;-64
2022/03/02 04:42:11;;;;;;;18.70;9.80;;;;;;;3.18;72.76;99680.48;25125;1308;3027085;-64
2022/03/02 04:44:40;;;;;;;18.70;10.50;;;;;;;2.94;73.27;99687.31;25177;1309;3052518;-64
2022/03/02 04:47:09;;;;;;;18.30;9.30;;;;;;;2.77;73.86;99685.66;25209;1309;3027650;-64
2022/03/02 04:49:38;;;;;;;19.40;10.40;;;;;;;2.61;74.16;99685.39;25186;1309;3051998;-64
2022/03/02 04:52:07;;;;;;;20.10;10.70;;;;;;;2.48;75.30;99689.33;25160;1309;3027484;-64
2022/03/02 04:57:25;;;;;;;13.50;7.50;;;;;;;2.17;76.38;99687.27;25146;1309;3050164;-64
2022/03/02 04:59:55;;;;;;;15.90;8.40;;;;;;;2.94;74.71;99686.97;25116;1309;3030098;-64
2022/03/02 05:02:24;;;;;;;17.50;8.90;;;;;;;3.42;72.30;99686.58;25181;1309;3026355;-64
2022/03/02 05:04:59;;;;;;;16.80;10.00;;;;;;;3.39;72.16;99685.59;25142;1308;3050532;-64
2022/03/02 05:07:28;;;;;;;17.90;9.90;;;;;;;3.21;72.43;99688.67;25203;1310;3026649;-63
2022/03/02 05:09:57;;;;;;;18.80;10.50;;;;;;;3.17;73.00;99696.27;25163;1309;3026374;-64
2022/03/02 05:12:26;;;;;;;23.50;11.90;;;;;;;3.00;73.15;99694.25;25160;1312;3048694;-64
2022/03/02 05:14:56;;;;;;;19.30;11.40;;;;;;;2.86;73.54;99696.35;25232;1309;3027288;-63
2022/03/02 05:17:25;;;;;;;20.80;11.60;;;;;;;2.64;74.32;99693.41;25135;1309;3026621;-64
2022/03/02 05:19:54;;;;;;;19.90;10.00;;;;;;;2.47;74.82;99698.86;25151;1309;3051718;-63
2022/03/02 05:22:23;;;;;;;19.70;11.00;;;;;;;2.49;74.63;99693.27;25132;1308;3026810;-63
2022/03/02 05:24:58;;;;;;;16.30;9.20;;;;;;;2.51;74.60;99697.04;25164;1307;3059275;-63
2022/03/02 05:27:27;;;;;;;16.50;8.20;;;;;;;2.88;74.34;99698.90;25095;1308;3026307;-63
2022/03/02 05:29:56;;;;;;;16.80;10.10;;;;;;;3.43;72.51;99688.80;25203;1309;3052691;-63
2022/03/02 05:32:27;;;;;;;16.80;9.60;;;;;;;3.53;72.21;99689.71;25193;1308;3026474;-63
2022/03/02 05:34:56;;;;;;;16.70;9.50;;;;;;;3.29;72.10;99692.28;25172;1308;3026360;-63
2022/03/02 05:37:25;;;;;;;17.30;10.50;;;;;;;3.12;73.01;99692.05;25130;1308;3028981;-63
2022/03/02 05:39:54;;;;;;;17.50;10.10;;;;;;;2.93;73.53;99694.95;25173;1308;3058263;-63
2022/03/02 05:42:23;;;;;;;20.00;10.70;;;;;;;2.70;74.57;99698.48;25109;1309;3026519;-63
2022/03/02 05:44:52;;;;;;;21.10;11.30;;;;;;;2.60;75.04;99690.77;25181;1309;3053717;-63
2022/03/02 05:47:21;;;;;;;20.10;10.60;;;;;;;2.49;75.61;99689.30;25164;1309;3026554;-63
2022/03/02 05:49:50;;;;;;;18.90;11.70;;;;;;;2.54;75.20;99686.76;25210;1309;3055578;-63
2022/03/02 05:52:28;;;;;;;20.20;10.90;;;;;;;2.24;76.35;99687.62;25212;1309;3029120;-63
2022/03/02 05:54:58;;;;;;;14.10;8.50;;;;;;;2.84;75.37;99687.58;25187;1309;3052194;-63
2022/03/02 05:57:26;;;;;;;17.20;9.10;;;;;;;3.45;72.96;99682.52;25231;1309;3026393;-63
2022/03/02 05:59:55;;;;;;;15.70;9.80;;;;;;;3.47;72.49;99682.28;25234;1310;3067737;-65
2022/03/02 06:02:24;;;;;;;18.10;9.70;;;;;;;3.54;72.34;99680.34;25232;1309;3027500;-63
2022/03/02 06:04:54;;;;;;;17.90;9.40;;;;;;;3.41;72.31;99684.17;25201;1310;3050946;-63
2022/03/02 06:07:23;;;;;;;17.30;10.70;;;;;;;3.18;72.70;99690.67;25141;1309;3026112;-63
2022/03/02 06:09:52;;;;;;;19.30;10.80;;;;;;;3.01;73.44;99695.98;25208;1309;3052637;-63
2022/03/02 06:12:21;;;;;;;19.80;10.90;;;;;;;2.79;74.44;99699.48;25131;1309;3026644;-63
2022/03/02 06:15:07;;;;;;;22.60;11.50;;;;;;;2.70;74.98;99695.02;25156;1312;3070933;-63
2022/03/02 06:17:37;;;;;;;21.00;12.30;;;;;;;2.63;75.53;99697.45;25194;1309;3026568;-63
2022/03/02 06:20:07;;;;;;;18.20;10.60;;;;;;;2.50;75.91;99699.65;25195;1309;3026528;-63
2022/03/02 06:22:36;;;;;;;16.50;9.10;;;;;;;2.97;75.17;99696.58;25158;1308;3026877;-63
2022/03/02 06:25:09;;;;;;;18.70;10.10;;;;;;;3.51;73.17;99686.15;25137;1309;3027033;-63
2022/03/02 06:27:38;;;;;;;21.90;10.80;;;;;;;3.53;72.39;99685.58;25182;1308;3026613;-63
2022/03/02 06:30:08;;;;;;;19.20;10.60;;;;;;;3.46;72.65;99690.11;25130;1309;3026751;-63
2022/03/02 06:32:37;;;;;;;19.80;11.20;;;;;;;3.28;73.26;99697.52;25138;1309;3026119;-63
2022/03/02 06:35:09;;;;;;;21.60;12.00;;;;;;;3.33;73.27;99701.02;25173;1308;3028476;-64
2022/03/02 06:37:38;;;;;;;20.70;11.80;;;;;;;3.29;72.96;99694.72;25256;1309;3026660;-63
2022/03/02 06:40:09;;;;;;;21.90;12.10;;;;;;;3.10;73.63;99697.30;25121;1309;3026768;-63
2022/03/02 06:42:47;;;;;;;25.20;14.50;;;;;;;3.00;74.15;99700.66;25180;1308;3068103;-63
2022/03/02 06:45:19;;;;;;;24.70;13.40;;;;;;;2.83;75.02;99702.83;25095;1310;3049002;-67
2022/03/02 06:48:00;;;;;;;27.80;12.60;;;;;;;2.66;75.75;99704.11;25187;1309;3027921;-63
2022/03/02 06:50:31;;;;;;;19.50;10.20;;;;;;;3.19;74.79;99703.11;25118;1309;3054007;-63
2022/03/02 06:53:01;;;;;;;20.10;10.50;;;;;;;3.76;72.58;99696.70;25224;1309;3025981;-63
2022/03/02 06:55:32;;;;;;;21.30;11.90;;;;;;;3.90;72.04;99699.75;25232;1308;3026833;-63
2022/03/02 06:58:01;;;;;;;23.20;11.90;;;;;;;3.83;71.64;99698.58;25091;1310;3026951;-63
2022/03/02 07:00:30;;;;;;;23.50;12.50;;;;;;;3.53;72.49;99696.33;25143;1312;3056573;-63
2022/03/02 07:03:03;;;;;;;25.00;12.40;;;;;;;3.45;73.08;99695.33;25144;1310;3026812;-63
2022/03/02 07:05:33;;;;;;;24.50;12.70;;;;;;;3.16;73.75;99694.90;25127;1308;3051169;-63
2022/03/02 07:08:04;;;;;;;29.20;15.60;;;;;;;2.97;74.80;99700.23;25165;1309;3027341;-63
2022/03/02 07:10:34;;;;;;;27.50;14.70;;;;;;;2.86;75.50;99696.34;25166;1309;3026764;-63
2022/03/02 07:13:24;;;;;;;30.00;14.70;;;;;;;2.76;76.01;99697.28;25136;1312;3055726;-63
2022/03/02 07:15:53;;;;;;;24.80;12.20;;;;;;;2.73;76.59;99688.36;25105;1309;3026684;-63
2022/03/02 07:18:22;;;;;;;25.20;11.90;;;;;;;3.41;75.25;99686.94;25196;1309;3025985;-63
2022/03/02 07:20:51;;;;;;;26.60;11.30;;;;;;;3.97;72.53;99679.27;25098;1311;3052748;-63
2022/03/02 07:23:20;;;;;;;28.40;13.70;;;;;;;4.09;71.71;99678.55;25132;1309;3026371;-63
2022/03/02 07:25:50;;;;;;;28.30;13.10;;;;;;;3.96;71.98;99680.67;25150;1309;3049529;-63
2022/03/02 07:28:20;;;;;;;29.60;14.00;;;;;;;3.81;72.52;99673.84;25077;1311;3026354;-63
2022/03/02 07:30:49;;;;;;;35.60;15.80;;;;;;;3.60;72.97;99674.11;25135;1309;3056837;-63
2022/03/02 07:33:19;;;;;;;31.80;15.20;;;;;;;3.53;73.27;99669.64;25134;1308;3029177;-63
2022/03/02 07:35:57;;;;;;;38.50;17.20;;;;;;;3.30;74.31;99668.71;25134;1310;3026546;-62
2022/03/02 07:38:28;;;;;;;33.60;16.50;;;;;;;3.20;74.68;99669.49;25208;1308;3052754;-63
2022/03/02 07:40:56;;;;;;;29.10;15.10;;;;;;;3.15;75.07;99664.80;25118;1312;3026304;-64
2022/03/02 07:43:25;;;;;;;28.80;13.40;;;;;;;3.03;75.50;99665.48;25144;1310;3026349;-63
2022/03/02 07:45:56;;;;;;;25.50;12.40;;;;;;;3.59;74.76;99659.22;25266;1309;3050621;-63
2022/03/02 07:48:25;;;;;;;26.50;13.70;;;;;;;4.15;72.32;99655.14;25156;1309;3027999;-64
2022/03/02 07:50:54;;;;;;;28.70;14.70;;;;;;;4.21;71.62;99655.31;25213;1309;3052039;-63
2022/03/02 07:53:25;;;;;;;27.00;14.60;;;;;;;4.10;71.99;99650.45;25169;1309;3025918;-63
2022/03/02 07:55:54;;;;;;;33.10;14.80;;;;;;;4.05;72.41;99648.70;25160;1309;3026421;-64
2022/03/02 07:58:24;;;;;;;35.20;16.90;;;;;;;3.84;72.55;99645.86;25210;1310;3026682;-65
2022/03/02 08:00:54;;;;;;;32.70;16.40;;;;;;;3.69;73.34;99645.63;25262;1308;3026884;-63
2022/03/02 08:03:26;;;;;;;32.90;16.30;;;;;;;3.66;73.54;99643.61;25208;1309;3068855;-63
2022/03/02 08:05:58;;;;;;;38.70;17.90;;;;;;;3.57;73.60;99635.21;25095;1310;3027284;-62
2022/03/02 08:08:28;;;;;;;37.70;16.90;;;;;;;3.46;74.48;99628.95;25154;1313;3026486;-63
2022/03/02 08:10:57;;;;;;;30.20;14.00;;;;;;;3.45;74.69;99627.96;25096;1312;3029135;-63
2022/03/02 08:13:46;;;;;;;32.80;14.40;;;;;;;4.13;72.91;99626.60;25123;1311;3051944;-63
2022/03/02 08:16:17;;;;;;;27.20;14.00;;;;;;;4.54;71.61;99622.16;25108;1310;3026201;-62
2022/03/02 08:18:46;;;;;;;26.50;14.20;;;;;;;4.58;70.79;99619.08;25161;1312;3027957;-63
2022/03/02 08:21:17;;;;;;;30.40;15.20;;;;;;;4.40;70.98;99615.48;25190;1310;3053021;-64
2022/03/02 08:23:48;;;;;;;33.20;17.00;;;;;;;4.12;72.02;99609.32;25106;1313;3027001;-64
2022/03/02 08:26:22;;;;;;;34.90;17.40;;;;;;;4.04;72.33;99605.73;25125;1312;3027338;-63
2022/03/02 08:28:54;;;;;;;34.30;17.80;;;;;;;3.93;73.13;99606.23;25156;1311;3058939;-64
2022/03/02 08:31:24;;;;;;;38.30;18.60;;;;;;;3.89;73.53;99605.67;25107;1311;3028279;-64
2022/03/02 08:33:54;;;;;;;37.80;17.50;;;;;;;3.76;73.95;99608.14;25177;1308;3028200;-64
2022/03/02 08:36:24;;;;;;;35.70;17.20;;;;;;;3.76;74.11;99607.48;25122;1311;3055854;-64
2022/03/02 08:38:54;;;;;;;36.00;14.40;;;;;;;3.70;74.60;99612.84;25166;1311;3026560;-64
2022/03/02 08:41:23;;;;;;;28.00;13.10;;;;;;;4.22;73.64;99606.20;25086;1311;3027544;-63
2022/03/02 08:43:53;;;;;;;29.40;13.80;;;;;;;4.72;71.75;99599.52;25126;1311;3027525;-63
2022/03/02 08:46:22;;;;;;;32.40;14.50;;;;;;;4.89;71.11;99601.02;25161;1311;3050125;-63
2022/03/02 08:48:52;;;;;;;29.10;15.10;;;;;;;4.81;71.17;99598.86;25115;1312;3026465;-63
2022/03/02 08:51:22;;;;;;;36.50;16.20;;;;;;;4.55;72.02;99601.83;25088;1312;3058833;-63
2022/03/02 08:53:56;;;;;;;36.10;17.50;;;;;;;4.41;72.55;99605.09;25068;1311;3026911;-64
2022/03/02 08:56:25;;;;;;;33.90;16.90;;;;;;;4.32;73.20;99604.30;25090;1313;3053234;-63
2022/03/02 08:58:55;;;;;;;29.70;15.00;;;;;;;4.29;73.50;99605.81;25165;1312;3026703;-64
2022/03/02 09:01:25;;;;;;;31.20;15.40;;;;;;;4.19;73.86;99604.21;25080;1308;3049072;-64
2022/03/02 09:03:55;;;;;;;37.20;17.50;;;;;;;4.16;73.98;99603.30;25122;1311;3026381;-64
2022/03/02 09:06:27;;;;;;;29.10;14.50;;;;;;;4.01;74.49;99607.05;25114;1315;3027186;-63
2022/03/02 09:08:57;;;;;;;27.00;11.90;;;;;;;4.45;73.72;99599.90;25111;1313;3026548;-64
2022/03/02 09:11:45;;;;;;;26.70;13.20;;;;;;;5.09;71.63;99594.95;25140;1312;3053202;-63
2022/03/02 09:14:14;;;;;;;30.60;15.40;;;;;;;5.08;71.28;99594.63;25127;1309;3026630;-63
2022/03/02 09:16:44;;;;;;;38.70;15.10;;;;;;;4.96;71.46;99593.49;25054;1311;3027559;-64
2022/03/02 09:19:14;;;;;;;33.60;16.30;;;;;;;4.78;71.97;99587.33;25128;1312;3026609;-64
2022/03/02 09:21:44;;;;;;;36.30;17.10;;;;;;;4.64;72.64;99586.95;25163;1308;3026943;-64
2022/03/02 09:24:13;;;;;;;40.30;19.70;;;;;;;4.56;73.01;99582.36;25110;1308;3026377;-62
2022/03/02 09:26:42;;;;;;;44.80;21.40;;;;;;;4.54;73.10;99580.52;25179;1308;3028128;-64
2022/03/02 09:29:12;;;;;;;44.30;20.20;;;;;;;4.47;73.47;99580.94;25156;1308;3052428;-64
2022/03/02 09:31:44;;;;;;;36.30;17.60;;;;;;;4.38;74.15;99582.44;25131;1308;3026185;-62
2022/03/02 09:34:14;;;;;;;36.00;17.30;;;;;;;4.36;74.01;99577.30;25146;1308;3030289;-62
2022/03/02 09:36:44;;;;;;;38.00;15.90;;;;;;;4.40;74.40;99574.21;25075;1311;3026423;-62
2022/03/02 09:39:15;;;;;;;33.20;15.60;;;;;;;4.94;72.91;99565.80;25154;1313;3026851;-61
2022/03/02 09:42:02;;;;;;;29.30;13.60;;;;;;;5.44;70.99;99558.55;25186;1311;3027872;-63
2022/03/02 09:44:46;;;;;;;38.30;15.80;;;;;;;5.55;70.40;99552.74;25131;1308;3052466;-61
2022/03/02 09:47:17;;;;;;;34.60;16.80;;;;;;;5.27;71.03;99550.01;25113;1309;3059439;-63
2022/03/02 09:49:57;;;;;;;34.00;18.20;;;;;;;5.29;71.33;99548.02;25117;1308;3051968;-60
2022/03/02 09:52:26;;;;;;;33.70;17.50;;;;;;;5.18;71.67;99539.05;25161;1309;3025984;-63
2022/03/02 09:54:56;;;;;;;40.90;20.80;;;;;;;5.10;71.84;99535.15;25073;1312;3026588;-62
2022/03/02 09:57:27;;;;;;;46.60;21.70;;;;;;;5.00;71.99;99538.30;25195;1309;3049160;-62
2022/03/02 09:59:56;;;;;;;43.90;20.70;;;;;;;4.79;73.00;99534.23;25191;1309;3026390;-62
2022/03/02 10:02:37;;;;;;;49.10;21.70;;;;;;;4.69;73.60;99535.42;25176;1309;3028315;-62
2022/03/02 10:05:09;;;;;;;46.80;22.80;;;;;;;4.66;74.08;99535.55;25162;1309;3069473;-60
2022/03/02 10:07:44;;;;;;;48.00;19.00;;;;;;;4.62;74.48;99527.52;25196;1309;3026775;-60
2022/03/02 10:10:17;;;;;;;38.70;18.30;;;;;;;5.21;73.00;99519.10;25136;1309;3052886;-61
2022/03/02 10:12:50;;;;;;;50.50;20.00;;;;;;;5.78;70.99;99510.84;25141;1309;3052914;-62
2022/03/02 10:15:21;;;;;;;42.30;20.20;;;;;;;5.87;70.37;99508.56;25142;1309;3026477;-61
2022/03/02 10:17:51;;;;;;;35.70;18.30;;;;;;;5.74;70.56;99508.57;25144;1309;3026784;-63
2022/03/02 10:20:22;;;;;;;42.90;22.80;;;;;;;5.67;70.80;99509.70;25111;1309;3051987;-61
2022/03/02 10:23:06;;;;;;;47.20;26.30;;;;;;;5.40;71.69;99509.89;25148;1310;3058611;-63
2022/03/02 10:25:48;;;;;;;43.00;23.30;;;;;;;4.98;72.95;99507.83;25092;1309;3052802;-61
2022/03/02 10:28:40;;;;;;;34.90;21.20;;;;;;;4.92;73.56;99509.10;25117;1310;3053154;-61
2022/03/02 10:31:15;;;;;;;32.20;18.50;;;;;;;4.86;73.90;99503.40;25005;1311;3052890;-64
2022/03/02 10:33:52;;;;;;;38.30;18.40;;;;;;;4.82;74.10;99496.59;25177;1309;3071225;-63
2022/03/02 10:36:27;;;;;;;28.80;13.40;;;;;;;4.78;74.68;99495.02;25227;1309;3054190;-62
2022/03/02 10:38:59;;;;;;;26.40;10.80;;;;;;;5.21;73.61;99489.41;25225;1309;3051957;-62
2022/03/02 10:41:29;;;;;;;25.50;12.40;;;;;;;5.70;71.84;99493.77;25139;1312;3026101;-63
2022/03/02 10:44:01;;;;;;;23.90;13.70;;;;;;;5.50;71.74;99491.95;25132;1309;3026792;-64
2022/03/02 10:46:31;;;;;;;26.70;14.30;;;;;;;5.35;72.49;99491.86;25150;1310;3026823;-63
2022/03/02 10:49:34;;;;;;;31.60;15.10;;;;;;;5.23;72.78;99490.39;25144;1309;3026225;-64
2022/03/02 10:52:03;;;;;;;32.10;15.70;;;;;;;4.95;73.77;99486.42;25092;1310;3055256;-60
2022/03/02 10:54:33;;;;;;;42.20;21.30;;;;;;;4.89;74.32;99485.95;25161;1309;3026800;-62
2022/03/02 10:57:11;;;;;;;38.70;20.20;;;;;;;4.78;74.68;99486.17;25125;1309;3048660;-62
2022/03/02 10:59:40;;;;;;;34.20;18.50;;;;;;;4.73;75.07;99480.78;25168;1309;3026863;-63
2022/03/02 11:02:10;;;;;;;38.70;18.80;;;;;;;4.72;75.11;99476.98;25189;1309;3027079;-63
2022/03/02 11:04:43;;;;;;;28.00;12.10;;;;;;;4.64;75.75;99470.70;25156;1309;3027443;-61
2022/03/02 11:07:13;;;;;;;34.10;12.30;;;;;;;5.20;74.52;99465.70;25074;1312;3049429;-62
2022/03/02 11:09:51;;;;;;;32.20;14.10;;;;;;;5.79;72.47;99459.17;25131;1312;3026783;-63
2022/03/02 11:12:21;;;;;;;32.90;15.80;;;;;;;5.75;72.06;99452.22;25167;1309;3051605;-63
2022/03/02 11:15:02;;;;;;;38.10;17.30;;;;;;;5.64;72.49;99452.98;25120;1312;3026879;-61
2022/03/02 11:17:32;;;;;;;42.80;18.60;;;;;;;5.53;73.13;99453.96;25153;1309;3049819;-61
2022/03/02 11:20:08;;;;;;;44.60;20.60;;;;;;;5.40;73.76;99450.31;25133;1312;3026982;-63
2022/03/02 11:22:39;;;;;;;49.20;23.10;;;;;;;5.31;74.44;99452.05;25080;1309;3051898;-64
2022/03/02 11:25:08;;;;;;;45.20;22.30;;;;;;;5.23;74.52;99448.73;25151;1310;3026740;-63
2022/03/02 11:27:40;;;;;;;55.40;25.00;;;;;;;5.09;75.01;99445.07;25101;1312;3052801;-62
2022/03/02 11:30:16;;;;;;;36.00;15.20;;;;;;;5.03;75.66;99443.76;25119;1312;3027517;-63
2022/03/02 11:32:47;;;;;;;40.80;16.20;;;;;;;5.72;73.89;99434.59;25077;1309;3056329;-62